Flight Track Log - Related Links

Times and Time Zones

All times are in EDT time to prevent confusion due to time zone crossing. See the N249BA flight status page for this flight to view local times or setup timezone preferences in your user account.

Time Position Orientation Groundspeed Altitude Reporting Facility
EDT Latitude Longitude Course Direction KTS MPH feet Rate Location/Type
Sat 06:20:20 PM 33.0014 -80.0689 314° West 261 300 4,500  Level Jacksonville Center
Sat 06:21:20 PM 33.0689 -80.1064 335° Northwest 266 306 7,800 1,948 Climbing Jacksonville Center
Sat 06:25:00 PM 33.4552 -80.4190 314° West  Level FlightAware Approximate
Sat 06:26:42 PM 33.4840 -80.4540 335° Northwest 388 447 16,900  Level FlightAware ADS-B
Sat 06:27:27 PM 33.5520 -80.5090 326° Northwest 401 461 18,800 2,304 Climbing FlightAware ADS-B
Sat 06:28:47 PM 33.6780 -80.6050 328° Northwest 408 470 21,700 1,891 Climbing FlightAware ADS-B
Sat 06:30:12 PM 33.7870 -80.7540 311° West 428 493 24,000 1,680 Climbing FlightAware ADS-B
Sat 06:30:52 PM 33.8390 -80.8270 311° West 435 501 25,200 1,624 Climbing FlightAware ADS-B
Sat 06:31:37 PM 33.8390 -80.8270 311° West 448 516 26,300 1,440 Climbing FlightAware ADS-B
Sat 06:32:32 PM 33.9720 -81.0180 310° West 459 528 27,600 1,380 Climbing FlightAware ADS-B
Sat 06:33:17 PM 34.0340 -81.1050 311° West 467 537 28,600 1,341 Climbing FlightAware ADS-B
Sat 06:33:57 PM 34.0900 -81.1870 310° West 471 542 29,500 1,425 Climbing FlightAware ADS-B
Sat 06:34:37 PM 34.1450 -81.2650 310° West 471 542 30,500 1,553 Climbing FlightAware ADS-B
Sat 06:36:47 PM 34.3250 -81.5250 310° West 460 529 33,900 1,447 Climbing FlightAware ADS-B
Sat 06:37:27 PM 34.3790 -81.6040 310° West 460 529 34,600 1,125 Climbing FlightAware ADS-B
Sat 06:38:07 PM 34.4320 -81.6810 310° West 457 526 35,400 988 Climbing FlightAware ADS-B
Sat 06:38:52 PM 34.4940 -81.7710 310° West 455 524 36,000 424 Climbing FlightAware ADS-B
Sat 06:39:32 PM 34.5470 -81.8490 310° West 453 521 36,000  Level FlightAware ADS-B
Sat 06:40:07 PM 34.5900 -81.9110 310° West 451 519 36,000  Level FlightAware ADS-B
Sat 06:40:57 PM 34.6580 -82.0120 309° West 447 514 36,000  Level FlightAware ADS-B
Sat 06:41:37 PM 34.7120 -82.0910 310° West 445 512 36,000  Level FlightAware ADS-B
Sat 06:42:22 PM 34.7710 -82.1780 310° West 445 512 36,000  Level FlightAware ADS-B
Sat 06:43:02 PM 34.8220 -82.2530 310° West 446 513 36,000  Level FlightAware ADS-B
Sat 06:44:27 PM 34.9350 -82.4210 309° West 450 518 36,000  Level FlightAware ADS-B
Sat 06:45:07 PM 34.9880 -82.4990 310° West 451 519 36,000  Level FlightAware ADS-B
Sat 06:45:52 PM 35.0470 -82.5880 309° West 451 519 36,000  Level FlightAware ADS-B
Sat 06:45:54 PM 35.0532 -82.5975 309° West 451 519 36,000  Level FlightAware ADS-B
Sat 06:46:26 PM 35.0953 -82.6607 309° West 451 519 36,000  Level FlightAware ADS-B
Sat 06:46:56 PM 35.1361 -82.7201 310° West 453 521 36,000  Level FlightAware ADS-B
Sat 06:47:27 PM 35.1770 -82.7818 309° West 455 524 36,000  Level FlightAware ADS-B
Sat 06:48:07 PM 35.1320 -82.7120 128° Southeast 455 524 36,000  Level FlightAware ADS-B
Sat 06:48:30 PM 35.2606 -82.9078 309° West 455 524 36,000  Level FlightAware ADS-B
Sat 06:49:00 PM 35.3004 -82.9675 309° West 452 520 36,000  Level FlightAware ADS-B
Sat 06:49:32 PM 35.3418 -83.0313 309° West 452 520 36,000  Level FlightAware ADS-B
Sat 06:50:03 PM 35.3824 -83.0929 309° West 452 520 36,000  Level FlightAware ADS-B
Sat 06:50:33 PM 35.4226 -83.1526 310° West 450 518 36,000  Level FlightAware ADS-B
Sat 06:51:19 PM 35.4823 -83.2437 309° West 447 514 36,000  Level FlightAware ADS-B
Sat 06:52:07 PM 35.5370 -83.3270 309° West 36,000  Level FlightAware ADS-B
Sat 06:52:21 PM 35.5618 -83.3660 308° West 445 512 36,000  Level FlightAware ADS-B
Sat 06:52:52 PM 35.6017 -83.4268 309° West 443 510 36,000  Level FlightAware ADS-B
Sat 06:53:23 PM 35.6412 -83.4876 309° West 442 509 36,000  Level FlightAware ADS-B
Sat 06:53:54 PM 35.6815 -83.5482 309° West 440 506 36,000  Level FlightAware ADS-B
Sat 06:54:25 PM 35.7202 -83.6088 308° West 440 506 36,000  Level FlightAware ADS-B
Sat 06:54:56 PM 35.7602 -83.6693 309° West 440 506 36,000  Level FlightAware ADS-B
Sat 06:55:31 PM 35.8038 -83.7377 308° West 439 505 36,000  Level FlightAware ADS-B
Sat 06:56:01 PM 35.8420 -83.7966 309° West 438 504 36,000  Level FlightAware ADS-B
Sat 06:56:31 PM 35.8801 -83.8551 309° West 438 504 36,000  Level FlightAware ADS-B
Sat 06:57:01 PM 35.9178 -83.9137 308° West 435 501 36,000  Level FlightAware ADS-B
Sat 06:57:33 PM 35.9536 -83.9790 304° West 431 496 36,000  Level FlightAware ADS-B
Sat 06:58:04 PM 35.9876 -84.0429 303° West 432 497 36,000  Level FlightAware ADS-B
Sat 06:59:37 PM 36.0920 -84.2350 304° West 432 497 36,000  Level FlightAware ADS-B
Sat 07:00:08 PM 36.1258 -84.2963 304° West 431 496 36,000  Level FlightAware ADS-B
Sat 07:00:38 PM 36.1596 -84.3575 304° West 431 496 36,000  Level FlightAware ADS-B
Sat 07:01:10 PM 36.1955 -84.4226 304° West 431 496 36,000  Level FlightAware ADS-B
Sat 07:01:40 PM 36.2294 -84.4839 304° West 430 495 36,000  Level FlightAware ADS-B
Sat 07:02:11 PM 36.2636 -84.5473 304° West 430 495 36,000  Level FlightAware ADS-B
Sat 07:02:52 PM 36.3091 -84.6309 304° West 430 495 36,000  Level FlightAware ADS-B
Sat 07:03:22 PM 36.3425 -84.6924 304° West 430 495 36,000  Level FlightAware ADS-B
Sat 07:03:53 PM 36.3767 -84.7558 304° West 430 495 36,000  Level FlightAware ADS-B
Sat 07:04:23 PM 36.4102 -84.8194 303° West 430 495 36,000  Level FlightAware ADS-B
Sat 07:05:12 PM 36.4637 -84.9177 304° West 428 493 36,000  Level FlightAware ADS-B
Sat 07:05:51 PM 36.5060 -84.9972 304° West 426 490 36,000  Level FlightAware ADS-B
Sat 07:06:26 PM 36.5445 -85.0683 304° West 424 488 36,000  Level FlightAware ADS-B
Sat 07:07:14 PM 36.5964 -85.1662 303° West 424 488 36,000  Level FlightAware ADS-B
Sat 07:07:44 PM 36.6293 -85.2273 304° West 424 488 36,000  Level FlightAware ADS-B
Sat 07:08:14 PM 36.6619 -85.2882 304° West 424 488 36,000  Level FlightAware ADS-B
Sat 07:08:59 PM 36.7107 -85.3800 304° West 424 488 36,000  Level FlightAware ADS-B
Sat 07:09:30 PM 36.7438 -85.4432 303° West 425 489 36,000  Level FlightAware ADS-B
Sat 07:10:51 PM 36.8310 -85.6090 303° West 425 489 36,000  Level FlightAware ADS-B
Sat 07:11:21 PM 36.8636 -85.6706 303° West 426 490 36,000  Level FlightAware ADS-B
Sat 07:11:51 PM 36.8965 -85.7323 304° West 425 489 36,000  Level FlightAware ADS-B
Sat 07:12:27 PM 36.9320 -85.8020 303° West 424 488 36,000  Level FlightAware ADS-B
Sat 07:13:07 PM 36.9750 -85.8820 304° West 423 487 36,000  Level FlightAware ADS-B
Sat 07:13:52 PM 37.0210 -85.9720 303° West 423 487 36,000  Level FlightAware ADS-B
Sat 07:15:12 PM 37.1090 -86.1390 303° West 423 487 36,000  Level FlightAware ADS-B
Sat 07:15:57 PM 37.1560 -86.2320 302° West 425 489 36,000  Level FlightAware ADS-B
Sat 07:16:32 PM 37.1930 -86.3040 303° West 424 488 36,000  Level FlightAware ADS-B
Sat 07:17:17 PM 37.2380 -86.3910 303° West 424 488 36,000  Level FlightAware ADS-B
Sat 07:18:02 PM 37.2910 -86.4950 303° West 423 487 36,000  Level FlightAware ADS-B
Sat 07:18:47 PM 37.3370 -86.5840 303° West 422 486 36,000  Level FlightAware ADS-B
Sat 07:19:27 PM 37.3770 -86.6620 303° West 423 487 36,000  Level FlightAware ADS-B
Sat 07:20:07 PM 37.4230 -86.7510 303° West 423 487 36,000  Level FlightAware ADS-B
Sat 07:20:52 PM 37.4690 -86.8450 302° West 423 487 36,000  Level FlightAware ADS-B
Sat 07:22:17 PM 37.5600 -87.0230 303° West 421 484 36,000  Level FlightAware ADS-B
Sat 07:22:57 PM 37.6000 -87.1020 303° West 421 484 36,000  Level FlightAware ADS-B
Sat 07:23:37 PM 37.6430 -87.1890 302° West 420 483 36,000  Level FlightAware ADS-B
Sat 07:24:22 PM 37.6890 -87.2800 303° West 419 482 36,000  Level FlightAware ADS-B
Sat 07:25:02 PM 37.7310 -87.3630 303° West 419 482 36,000  Level FlightAware ADS-B
Sat 07:26:27 PM 37.8190 -87.5420 302° West 422 486 36,000  Level FlightAware ADS-B
Sat 07:27:07 PM 37.8610 -87.6230 303° West 421 484 36,000  Level FlightAware ADS-B
Sat 07:27:52 PM 37.9060 -87.7150 302° West 420 483 36,000  Level FlightAware ADS-B
Sat 07:28:32 PM 37.9460 -87.8020 300° West 417 480 36,000  Level FlightAware ADS-B
Sat 07:30:37 PM 38.0430 -88.0850 294° West 421 484 36,000  Level FlightAware ADS-B
Sat 07:31:22 PM 38.0780 -88.1830 294° West 420 483 36,000  Level FlightAware ADS-B
Sat 07:32:02 PM 38.1100 -88.2710 295° West 420 483 36,000  Level FlightAware ADS-B
Sat 07:33:57 PM 38.2020 -88.5340 294° West 419 482 36,000  Level FlightAware ADS-B
Sat 07:34:37 PM 38.2330 -88.6220 294° West 417 480 36,000  Level FlightAware ADS-B
Sat 07:35:17 PM 38.2650 -88.7140 294° West 415 478 36,000  Level FlightAware ADS-B
Sat 07:35:57 PM 38.2950 -88.8010 294° West 415 478 36,000  Level FlightAware ADS-B
Sat 07:36:42 PM 38.3290 -88.8990 294° West 414 476 36,000  Level FlightAware ADS-B
Sat 07:37:27 PM 38.3640 -89.0000 294° West 415 478 36,000  Level FlightAware ADS-B
Sat 07:38:07 PM 38.3950 -89.0920 293° West 414 476 36,000  Level FlightAware ADS-B
Sat 07:38:47 PM 38.4240 -89.1750 294° West 413 475 36,000  Level FlightAware ADS-B
Sat 07:39:32 PM 38.4590 -89.2770 294° West 412 474 36,000  Level FlightAware ADS-B
Sat 07:40:12 PM 38.4920 -89.3650 296° West 418 481 36,000  Level FlightAware ADS-B
Sat 07:40:57 PM 38.5420 -89.4610 304° West 420 483 36,000  Level FlightAware ADS-B
Sat 07:41:37 PM 38.5850 -89.5430 304° West 422 486 36,000  Level FlightAware ADS-B
Sat 07:42:17 PM 38.6280 -89.6240 304° West 421 484 36,000  Level FlightAware ADS-B
Sat 07:43:02 PM 38.6720 -89.7080 304° West 421 484 36,000  Level FlightAware ADS-B
Sat 07:43:42 PM 38.7220 -89.8010 305° West 420 483 36,000  Level FlightAware ADS-B
Sat 07:44:27 PM 38.7650 -89.8850 303° West 420 483 36,000  Level FlightAware ADS-B
Sat 07:45:07 PM 38.8010 -89.9560 303° West 420 483 36,000  Level FlightAware ADS-B
Sat 07:46:32 PM 38.9090 -90.1570 305° West 422 486 36,000  Level FlightAware ADS-B
Sat 07:47:12 PM 38.9530 -90.2410 304° West 421 484 36,000  Level FlightAware ADS-B
Sat 07:47:47 PM 38.9890 -90.3110 304° West 421 484 36,000  Level FlightAware ADS-B
Sat 07:48:37 PM 39.0430 -90.4130 304° West 421 484 36,000  Level FlightAware ADS-B
Sat 07:49:17 PM 39.0870 -90.4990 303° West 421 484 36,000  Level FlightAware ADS-B
Sat 07:50:02 PM 39.1360 -90.5930 304° West 420 483 36,000  Level FlightAware ADS-B
Sat 07:50:57 PM 39.1950 -90.7100 303° West 421 484 36,000  Level FlightAware ADS-B
Sat 07:51:37 PM 39.2350 -90.7870 304° West 420 483 36,000  Level FlightAware ADS-B
Sat 07:52:17 PM 39.2760 -90.8660 304° West 420 483 36,000  Level FlightAware ADS-B
Sat 07:53:02 PM 39.3290 -90.9690 304° West 421 484 36,000  Level FlightAware ADS-B
Sat 07:53:37 PM 39.3670 -91.0430 304° West 421 484 36,000  Level FlightAware ADS-B
Sat 07:54:27 PM 39.4210 -91.1500 303° West 421 484 36,000  Level FlightAware ADS-B
Sat 07:55:07 PM 39.4610 -91.2280 304° West 421 484 36,000  Level FlightAware ADS-B
Sat 07:55:52 PM 39.5070 -91.3210 303° West 421 484 36,000  Level FlightAware ADS-B
Sat 07:56:22 PM 39.5400 -91.3870 303° West 421 484 36,000  Level FlightAware ADS-B
Sat 07:57:57 PM 39.6430 -91.5920 303° West 421 484 36,000  Level FlightAware ADS-B
Sat 07:58:37 PM 39.6860 -91.6770 303° West 420 483 36,000  Level FlightAware ADS-B
Sat 07:59:22 PM 39.7300 -91.7660 303° West 419 482 36,000  Level FlightAware ADS-B
Sat 08:00:02 PM 39.7750 -91.8570 303° West 419 482 36,000  Level FlightAware ADS-B
Sat 08:00:47 PM 39.8220 -91.9500 303° West 419 482 36,000  Level FlightAware ADS-B
Sat 08:01:27 PM 39.8650 -92.0370 303° West 419 482 36,000  Level FlightAware ADS-B
Sat 08:02:02 PM 39.9010 -92.1120 302° West 419 482 36,000  Level FlightAware ADS-B
Sat 08:02:57 PM 39.9590 -92.2310 302° West 422 486 36,000  Level FlightAware ADS-B
Sat 08:03:32 PM 39.9960 -92.3040 304° West 423 487 36,000  Level FlightAware ADS-B
Sat 08:04:12 PM 40.0380 -92.3910 302° West 425 489 36,000  Level FlightAware ADS-B
Sat 08:04:57 PM 40.0850 -92.4860 303° West 425 489 36,000  Level FlightAware ADS-B
Sat 08:05:37 PM 40.1260 -92.5720 302° West 425 489 36,000  Level FlightAware ADS-B
Sat 08:06:22 PM 40.1720 -92.6770 300° West 422 486 36,000  Level FlightAware ADS-B
Sat 08:06:57 PM 40.2040 -92.7530 299° West 421 484 36,000  Level FlightAware ADS-B
Sat 08:07:37 PM 40.2410 -92.8430 298° West 421 484 36,000  Level FlightAware ADS-B
Sat 08:09:02 PM 40.3220 -93.0340 299° West 419 482 36,000  Level FlightAware ADS-B
Sat 08:09:42 PM 40.3570 -93.1190 298° West 419 482 36,000  Level FlightAware ADS-B
Sat 08:10:22 PM 40.3960 -93.2120 299° West 417 480 36,000  Level FlightAware ADS-B
Sat 08:10:52 PM 40.4240 -93.2790 299° West 417 480 36,000  Level FlightAware ADS-B
Sat 08:11:37 PM 40.4640 -93.3770 298° West 417 480 36,000  Level FlightAware ADS-B
Sat 08:12:17 PM 40.4970 -93.4580 298° West 417 480 36,000  Level FlightAware ADS-B
Sat 08:12:57 PM 40.5360 -93.5520 299° West 418 481 36,000  Level FlightAware ADS-B
Sat 08:13:42 PM 40.5800 -93.6590 298° West 419 482 36,000  Level FlightAware ADS-B
Sat 08:14:22 PM 40.6150 -93.7420 299° West 419 482 36,000  Level FlightAware ADS-B
Sat 08:14:57 PM 40.6440 -93.8150 298° West 419 482 36,000  Level FlightAware ADS-B
Sat 08:15:47 PM 40.6830 -93.9110 298° West 419 482 36,000  Level FlightAware ADS-B
Sat 08:16:27 PM 40.7140 -93.9880 298° West 419 482 36,000  Level FlightAware ADS-B
Sat 08:17:12 PM 40.7700 -94.1260 298° West 417 480 36,000  Level FlightAware ADS-B
Sat 08:17:52 PM 40.8070 -94.2180 298° West 418 481 36,000  Level FlightAware ADS-B
Sat 08:18:32 PM 40.8440 -94.3100 298° West 419 482 36,000  Level FlightAware ADS-B
Sat 08:19:17 PM 40.8780 -94.4000 297° West 419 482 36,000  Level FlightAware ADS-B
Sat 08:19:57 PM 40.9080 -94.4770 297° West 419 482 36,000  Level FlightAware ADS-B
Sat 08:20:37 PM 40.9380 -94.5550 297° West 419 482 36,000  Level FlightAware ADS-B
Sat 08:21:17 PM 40.9900 -94.6770 299° West 421 484 36,000  Level FlightAware ADS-B
Sat 08:22:17 PM 41.0440 -94.8140 298° West 422 486 36,000  Level FlightAware ADS-B
Sat 08:22:57 PM 41.0740 -94.8930 297° West 422 486 36,000  Level FlightAware ADS-B
Sat 08:23:37 PM 41.1040 -94.9710 297° West 422 486 36,000  Level FlightAware ADS-B
Sat 08:24:17 PM 41.1340 -95.0500 297° West 422 486 36,000  Level FlightAware ADS-B
Sat 08:25:07 PM 41.1720 -95.1480 297° West 422 486 36,000  Level FlightAware ADS-B
Sat 08:25:42 PM 41.1680 -95.1300 106° East 36,000  Level FlightAware ADS-B
Sat 08:26:45 PM 41.2850 -95.4331 106° East 425 489 36,000  Level Minneapolis Center
Sat 08:27:46 PM 41.3375 -95.5728 297° West 425 489 36,000  Level Minneapolis Center
Sat 08:28:47 PM 41.3928 -95.7119 298° West 424 488 36,000  Level Minneapolis Center
Sat 08:29:49 PM 41.4464 -95.8531 297° West 428 493 36,000  Level Minneapolis Center
Sat 08:30:50 PM 41.4989 -95.9936 297° West 424 488 36,000  Level Minneapolis Center
Sat 08:31:51 PM 41.5514 -96.1339 297° West 422 486 36,000  Level Minneapolis Center
Sat 08:32:53 PM 41.6050 -96.2742 297° West 423 487 36,000  Level Minneapolis Center
Sat 08:33:54 PM 41.6628 -96.4303 296° West 420 483 36,000  Level Minneapolis Center
Sat 08:34:55 PM 41.7139 -96.5706 296° West 420 483 36,000  Level Minneapolis Center
Sat 08:35:57 PM 41.7669 -96.7122 297° West 423 487 36,000  Level Minneapolis Center
Sat 08:36:58 PM 41.8197 -96.8531 297° West 425 489 36,000  Level Minneapolis Center
Sat 08:38:00 PM 41.8708 -96.9942 296° West 422 486 36,000  Level Minneapolis Center
Sat 08:39:01 PM 41.9228 -97.1364 296° West 423 487 36,000  Level Minneapolis Center
Sat 08:40:03 PM 41.9844 -97.3061 296° West 422 486 36,000  Level Minneapolis Center
Sat 08:41:04 PM 42.0353 -97.4478 296° West 421 484 36,000  Level Minneapolis Center
Sat 08:42:06 PM 42.0864 -97.5908 296° West 424 488 36,000  Level Minneapolis Center
Sat 08:43:07 PM 42.1383 -97.7339 296° West 425 489 36,000  Level Minneapolis Center
Sat 08:44:08 PM 42.1931 -97.8900 295° West 427 491 36,000  Level Minneapolis Center
Sat 08:45:10 PM 42.2439 -98.0347 295° West 427 491 36,000  Level Minneapolis Center
Sat 08:46:11 PM 42.2947 -98.1781 296° West 426 490 36,000 293 Level Minneapolis Center
Sat 08:47:13 PM 42.3450 -98.3231 295° West 426 490 36,600 444 Climbing Minneapolis Center
Sat 08:48:26 PM 42.3958 -98.4694 295° West 429 494 37,000 178 Climbing Minneapolis Center
Sat 08:49:28 PM 42.4567 -98.6458 295° West 431 496 37,000 293 Level Minneapolis Center
Sat 08:50:29 PM 42.5139 -98.7894 298° West 433 498 37,600 488 Climbing Minneapolis Center
Sat 08:51:31 PM 42.5753 -98.9683 295° West 436 502 38,000 195 Climbing Minneapolis Center
Sat 08:52:32 PM 42.6297 -99.1136 297° West 435 501 38,000  Level Minneapolis Center
Sat 08:53:46 PM 42.6842 -99.2594 297° West 433 498 38,000  Level Minneapolis Center
Sat 08:54:47 PM 42.7492 -99.4350 297° West 433 498 38,000  Level Minneapolis Center
Sat 08:55:49 PM 42.8019 -99.5817 296° West 432 497 38,000  Level Minneapolis Center
Sat 08:56:16 PM 42.8222 -99.6375 296° West 431 496 38,000  Level Denver Center
Sat 08:57:17 PM 42.8747 -99.7850 296° West 433 498 38,000  Level Denver Center
Sat 08:57:52 PM 42.9072 -99.8725 297° West 432 497 38,000  Level Minneapolis Center
Sat 08:58:53 PM 42.9594 -100.0186 296° West 429 494 38,000  Level Minneapolis Center
Sat 08:59:54 PM 43.0125 -100.1678 296° West 433 498 38,000  Level Minneapolis Center
Sat 09:00:23 PM 43.0436 -100.2539 296° West 429 494 38,000  Level Denver Center
Sat 09:01:24 PM 43.0953 -100.3992 296° West 426 490 38,000  Level Denver Center
Sat 09:02:25 PM 43.1475 -100.5475 296° West 429 494 38,000  Level Denver Center
Sat 09:03:26 PM 43.1992 -100.6950 296° West 429 494 38,000  Level Denver Center
Sat 09:04:28 PM 43.2506 -100.8447 295° West 431 496 38,000  Level Denver Center
Sat 09:05:29 PM 43.2925 -100.9644 296° West 434 499 38,000  Level Denver Center
Sat 09:06:30 PM 43.3542 -101.1444 295° West 436 502 38,000  Level Denver Center
Sat 09:07:32 PM 43.4058 -101.2956 295° West 437 503 38,000  Level Denver Center
Sat 09:08:33 PM 43.4681 -101.4747 296° West 433 498 38,000  Level Denver Center
Sat 09:09:34 PM 43.5181 -101.6247 295° West 431 496 38,000  Level Denver Center
Sat 09:10:35 PM 43.5700 -101.7756 295° West 434 499 38,000  Level Denver Center
Sat 09:11:37 PM 43.6192 -101.9256 294° West 429 494 38,000  Level Denver Center
Sat 09:12:38 PM 43.6703 -102.0761 295° West 433 498 38,000  Level Denver Center
Sat 09:13:39 PM 43.7219 -102.2342 294° West 432 497 38,000  Level Denver Center
Sat 09:14:41 PM 43.7697 -102.3778 295° West 430 495 38,000  Level Denver Center
Sat 09:15:42 PM 43.8253 -102.5453 295° West 430 495 38,000  Level Denver Center
Sat 09:16:43 PM 43.8719 -102.6906 294° West 430 495 38,000  Level Denver Center
Sat 09:17:45 PM 43.9203 -102.8386 294° West 436 502 38,000  Level Denver Center
Sat 09:18:46 PM 43.9769 -103.0103 295° West 439 505 38,000  Level Denver Center
Sat 09:19:47 PM 44.0303 -103.1508 298° West 435 501 38,000  Level Denver Center
Sat 09:20:49 PM 44.0853 -103.3211 294° West 433 498 38,000  Level Denver Center
Sat 09:21:50 PM 44.1378 -103.4631 297° West 433 498 38,000  Level Denver Center
Sat 09:22:51 PM 44.1897 -103.6058 297° West 433 498 38,000  Level Denver Center
Sat 09:23:53 PM 44.2472 -103.7719 296° West 426 490 38,000  Level Denver Center
Sat 09:25:06 PM 44.2989 -103.9164 297° West 434 499 38,000  Level Denver Center
Sat 09:26:07 PM 44.3569 -104.0836 296° West 431 496 38,000  Level Denver Center
Sat 09:27:09 PM 44.4144 -104.2503 296° West 429 494 38,000  Level Denver Center
Sat 09:28:10 PM 44.4725 -104.4167 296° West 428 493 38,000  Level Denver Center
Sat 09:29:12 PM 44.5217 -104.5589 296° West 425 489 38,000  Level Denver Center
Sat 09:30:13 PM 44.5781 -104.7267 295° West 427 491 38,000  Level Denver Center
Sat 09:31:15 PM 44.6264 -104.8694 295° West 426 490 38,000  Level Denver Center
Sat 09:32:16 PM 44.6744 -105.0122 295° West 424 488 38,000  Level Denver Center
Sat 09:33:17 PM 44.7317 -105.1806 296° West 427 491 38,000  Level Denver Center
Sat 09:34:18 PM 44.7678 -105.2889 295° West 423 487 38,000  Level Denver Center
Sat 09:35:20 PM 44.8308 -105.4811 295° West 423 487 38,000  Level Denver Center
Sat 09:36:21 PM 44.8783 -105.6236 295° West 422 486 38,000  Level Denver Center
Sat 09:37:22 PM 44.9333 -105.7917 295° West 422 486 38,000  Level Denver Center
Sat 09:38:24 PM 44.9797 -105.9344 295° West 418 481 38,000  Level Denver Center
Sat 09:39:25 PM 45.0331 -106.1011 294° West 418 481 38,000  Level Denver Center
Sat 09:40:27 PM 45.0797 -106.2431 295° West 416 479 38,000  Level Denver Center
Sat 09:41:30 PM 45.1328 -106.4086 294° West 414 476 38,000  Level Salt Lake Center
Sat 09:42:31 PM 45.1789 -106.5528 294° West 419 482 38,000  Level Salt Lake Center
Sat 09:43:32 PM 45.2236 -106.6958 294° West 417 480 38,000  Level Salt Lake Center
Sat 09:44:33 PM 45.2758 -106.8631 294° West 416 479 38,000  Level Salt Lake Center
Sat 09:45:34 PM 45.3219 -107.0067 295° West 417 480 38,000  Level Salt Lake Center
Sat 09:46:35 PM 45.3731 -107.1736 294° West 415 478 38,000  Level Salt Lake Center
Sat 09:47:36 PM 45.4181 -107.3192 294° West 420 483 38,000  Level Salt Lake Center
Sat 09:48:37 PM 45.4614 -107.4614 294° West 412 474 38,000  Level Salt Lake Center
Sat 09:49:38 PM 45.5117 -107.6286 293° West 413 475 38,000  Level Salt Lake Center
Sat 09:50:39 PM 45.5564 -107.7747 294° West 421 484 38,000  Level Salt Lake Center
Sat 09:51:41 PM 45.5997 -107.9197 293° West 419 482 38,000  Level Salt Lake Center
Sat 09:52:42 PM 45.6503 -108.0883 293° West 414 476 38,000  Level Salt Lake Center
Sat 09:53:43 PM 45.6933 -108.2336 293° West 414 476 38,000  Level Salt Lake Center
Sat 09:54:44 PM 45.7442 -108.4039 293° West 418 481 38,000  Level Salt Lake Center
Sat 09:55:45 PM 45.7875 -108.5497 293° West 417 480 38,000  Level Salt Lake Center
Sat 09:56:46 PM 45.8283 -108.6967 292° West 415 478 38,000  Level Salt Lake Center
Sat 09:57:47 PM 45.8722 -108.8714 290° West 418 481 38,000  Level Salt Lake Center
Sat 09:58:48 PM 45.9103 -109.0206 290° West 419 482 38,000  Level Salt Lake Center
Sat 09:59:49 PM 45.9550 -109.1947 290° West 417 480 38,000  Level Salt Lake Center
Sat 10:00:50 PM 45.9919 -109.3442 290° West 416 479 38,000  Level Salt Lake Center
Sat 10:01:51 PM 46.0300 -109.4933 290° West 417 480 38,000  Level Salt Lake Center
Sat 10:02:52 PM 46.0733 -109.6675 290° West 414 476 38,000  Level Salt Lake Center
Sat 10:03:54 PM 46.1108 -109.8178 290° West 418 481 38,000  Level Salt Lake Center
Sat 10:04:55 PM 46.1453 -109.9689 288° West 416 479 38,000  Level Salt Lake Center
Sat 10:05:56 PM 46.1872 -110.1425 289° West 413 475 38,000  Level Salt Lake Center
Sat 10:06:57 PM 46.2233 -110.2942 289° West 415 478 38,000  Level Salt Lake Center
Sat 10:07:58 PM 46.2650 -110.4689 289° West 413 475 38,000  Level Salt Lake Center
Sat 10:08:59 PM 46.3011 -110.6181 289° West 412 474 38,000  Level Salt Lake Center
Sat 10:10:00 PM 46.3356 -110.7681 288° West 411 473 38,000  Level Salt Lake Center
Sat 10:11:01 PM 46.3775 -110.9444 289° West 414 476 38,000  Level Salt Lake Center
Sat 10:12:03 PM 46.4128 -111.0950 289° West 413 475 38,000  Level Salt Lake Center
Sat 10:13:04 PM 46.4456 -111.2378 288° West 408 470 38,000  Level Salt Lake Center
Sat 10:14:05 PM 46.4806 -111.3922 288° West 404 465 38,000  Level Salt Lake Center
Sat 10:15:06 PM 46.5158 -111.5478 288° West 405 466 38,000  Level Salt Lake Center
Sat 10:16:07 PM 46.5581 -111.7364 288° West 407 468 38,000 -49 Level Salt Lake Center
Sat 10:17:08 PM 46.5947 -111.8978 288° West 417 480 37,900 -49 Descending Salt Lake Center
Sat 10:18:09 PM 46.6267 -112.0619 286° West 421 484 37,900  Level Salt Lake Center
Sat 10:19:10 PM 46.6547 -112.2294 284° West 425 489 37,900 49 Level Salt Lake Center
Sat 10:20:12 PM 46.6819 -112.3894 284° West 411 473 38,000 49 Climbing Salt Lake Center
Sat 10:21:13 PM 46.7092 -112.5500 284° West 410 472 38,000 -49 Level Salt Lake Center
Sat 10:22:14 PM 46.7367 -112.7081 284° West 404 465 37,900  Descending Salt Lake Center
Sat 10:23:15 PM 46.7631 -112.8664 284° West 403 464 38,000 49 Climbing Salt Lake Center
Sat 10:24:16 PM 46.7903 -113.0275 284° West 408 470 38,000  Level Salt Lake Center
Sat 10:25:18 PM 46.8167 -113.1864 284° West 405 466 38,000  Level Salt Lake Center
Sat 10:26:19 PM 46.8425 -113.3456 283° West 405 466 38,000  Level Salt Lake Center
Sat 10:27:20 PM 46.8683 -113.5083 283° West 412 474 38,000  Level Salt Lake Center
Sat 10:28:21 PM 46.9006 -113.7025 284° West 410 472 38,000  Level Salt Lake Center
Sat 10:29:22 PM 46.9253 -113.8644 283° West 408 470 38,000 -49 Level Salt Lake Center
Sat 10:30:24 PM 46.9514 -114.0242 284° West 405 466 37,900  Descending Salt Lake Center
Sat 10:31:25 PM 46.9756 -114.1847 282° West 404 465 38,000  Climbing Salt Lake Center
Sat 10:32:26 PM 47.0000 -114.3417 283° West 398 458 37,900  Descending Salt Lake Center
Sat 10:33:28 PM 47.0242 -114.4997 283° West 398 458 38,000 49 Climbing Salt Lake Center
Sat 10:34:29 PM 47.0475 -114.6547 283° West 390 449 38,000 -49 Level Salt Lake Center
Sat 10:35:30 PM 47.0711 -114.8142 282° West 398 458 37,900  Descending Salt Lake Center
Sat 10:36:16 PM 47.0892 -114.9397 282° West 393 452 38,000 56 Climbing Seattle Center
Sat 10:37:17 PM 47.1125 -115.0953 282° West 391 450 38,000  Level Seattle Center
Sat 10:38:17 PM 47.1353 -115.2497 282° West 388 447 38,000  Level Seattle Center
Sat 10:39:18 PM 47.1589 -115.4169 282° West 393 452 38,000  Level Seattle Center
Sat 10:40:19 PM 47.1803 -115.5717 282° West 390 449 38,000  Level Seattle Center
Sat 10:41:19 PM 47.2025 -115.7233 282° West 382 440 38,000 -99 Level Seattle Center
Sat 10:42:20 PM 47.2233 -115.8772 281° West 384 442 37,800 -496 Descending Seattle Center
Sat 10:43:20 PM 47.2447 -116.0308 282° West 385 443 37,000 -397 Descending Seattle Center
Sat 10:44:21 PM 47.2689 -116.1839 283° West 385 443 37,000  Level Seattle Center
Sat 10:45:22 PM 47.2953 -116.3344 285° West 382 440 37,000  Level Seattle Center
Sat 10:46:22 PM 47.3214 -116.4858 284° West 383 441 37,000 -50 Level Seattle Center
Sat 10:47:23 PM 47.3475 -116.6375 284° West 382 440 36,900  Descending Seattle Center
Sat 10:48:24 PM 47.3728 -116.7903 284° West 383 441 37,000 50 Climbing Seattle Center
Sat 10:49:24 PM 47.3989 -116.9442 284° West 383 441 37,000  Level Seattle Center
Sat 10:50:25 PM 47.4253 -117.0992 284° West 383 441 37,000  Level Seattle Center
Sat 10:51:25 PM 47.4497 -117.2544 283° West 383 441 37,000  Level Seattle Center
Sat 10:52:26 PM 47.4753 -117.4083 284° West 382 440 37,000  Level Seattle Center
Sat 10:53:27 PM 47.4994 -117.5619 283° West 382 440 37,000  Level Seattle Center
Sat 10:54:27 PM 47.5242 -117.7133 284° West 380 437 37,000  Level Seattle Center
Sat 10:55:28 PM 47.5492 -117.8681 284° West 384 442 37,000  Level Seattle Center
Sat 10:56:29 PM 47.5731 -118.0214 283° West 385 443 37,000  Level Seattle Center
Sat 10:57:29 PM 47.5975 -118.1739 283° West 383 441 37,000  Level Seattle Center
Sat 10:58:30 PM 47.6200 -118.3272 282° West 382 440 37,000  Level Seattle Center
Sat 10:59:30 PM 47.6444 -118.4806 283° West 383 441 37,000  Level Seattle Center
Sat 11:00:31 PM 47.6667 -118.6336 282° West 381 438 37,000  Level Seattle Center
Sat 11:01:32 PM 47.6903 -118.7878 283° West 383 441 37,000  Level Seattle Center
Sat 11:02:32 PM 47.7117 -118.9425 282° West 384 442 37,000 -50 Level Seattle Center
Sat 11:03:33 PM 47.7367 -119.1264 281° West 381 438 36,900 -176 Descending Seattle Center
Sat 11:09:22 PM 47.8620 -120.0030 281° West 370 426 35,800 -170 Descending FlightAware ADS-B
Sat 11:10:02 PM 47.8720 -120.0880 280° West 370 426 35,800 -1,050 Level FlightAware ADS-B
Sat 11:10:42 PM 47.8890 -120.2060 282° West 381 438 34,400 -2,262 Descending FlightAware ADS-B
Sat 11:14:22 PM 47.9630 -120.7530 282° West 336 387 26,000 -2,400 Descending FlightAware ADS-B
Sat 11:16:47 PM 48.0040 -121.0730 281° West 309 356 19,800 -2,462 Descending FlightAware ADS-B
Sat 11:19:12 PM 48.0410 -121.3650 281° West 287 330 14,100 -2,243 Descending FlightAware ADS-B
Sat 11:20:37 PM 48.0610 -121.5250 281° West 291 335 11,200 -1,920 Descending FlightAware ADS-B
Sat 11:21:17 PM 48.0700 -121.6030 280° West 289 333 10,100 -1,543 Descending FlightAware ADS-B
Sat 11:21:47 PM 48.0770 -121.6620 280° West 272 313 9,400 -831 Descending FlightAware ADS-B
Sat 11:22:22 PM 48.0850 -121.7240 281° West 270 311 9,200 -840 Descending FlightAware ADS-B
Sat 11:22:37 PM 48.0880 -121.7530 279° West 259 298 8,700 -429 Descending FlightAware ADS-B
Sat 11:23:32 PM 48.1000 -121.8510 280° West 263 303 8,700 -600 Level FlightAware ADS-B
Sat 11:25:27 PM 48.0740 -122.0250 257° West 242 278 7,000 -729 Descending FlightAware ADS-B
Sat 11:25:52 PM 48.0470 -122.0290 186° South 242 278 7,000 -581 Level FlightAware ADS-B
Sat 11:26:29 PM 48.0056 -122.0156 186° South 225 259 6,400 -873 Descending Seattle Center
Sat 11:26:47 PM 47.9900 -122.0125 173° South 222 255 6,200 -1,164 Descending Seattle Center
Sat 11:27:36 PM 47.9394 -122.0097 178° South 203 234 5,100 -1,145 Descending Seattle Center
Sat 11:28:37 PM 47.8886 -122.0019 174° South 181 208 4,100 -1,033 Descending Seattle Center
Sat 11:29:38 PM 47.8350 -122.0022 180° South 193 222 3,000 -541 Descending Seattle Center
Sat 11:30:39 PM 47.7817 -122.0025 180° South 200 230 3,000  Level Seattle Center
Sat 11:31:39 PM 47.7303 -122.0281 198° South 193 222 3,000  Level Seattle Center
Sat 11:32:40 PM 47.6858 -122.0628 208° Southwest 188 216 3,000  Level Seattle Center
Sat 11:33:41 PM 47.6953 -122.1433 280° West 182 209 3,000  Level Seattle Center
Sat 11:34:36 PM 47.7061 -122.2128 283° West 193 222 3,000  Level Seattle Center
Sat 11:34:51 PM 47.7081 -122.2314 279° West 193 222 3,000  Level Seattle Center
Sat 11:35:36 PM 47.7239 -122.2822 295° West 174 200 3,000  Level Seattle Center
Sat 11:35:52 PM 47.7331 -122.2853 347° North 179 206 3,000 -393 Level Seattle Center
Sat 11:36:37 PM 47.7686 -122.2836 North 153 176 2,600 -500 Descending Seattle Center
Sat 11:36:52 PM 47.7781 -122.2822 North 161 185 2,500 -327 Descending Seattle Center
Sat 11:37:32 PM 47.8061 -122.2828 359° North 147 169 2,300 -300 Descending Seattle Center
Sat 11:37:52 PM 47.8178 -122.2822 North 147 169 2,200 -689 Descending Seattle Center
Sat 11:38:33 PM 47.8444 -122.2844 357° North 143 165 1,600 -787 Descending Seattle Center
Sat 11:38:53 PM 47.8561 -122.2836 North 141 162 1,400 -600 Descending Seattle Center
Sat 11:39:53 PM 47.8981 -122.2836 360° North 140 161 800 -600 Descending Seattle Center

Login

Don't have an account? Register now (free) for customized features, flight alerts, and more!